Weather History for Beaufort, NC

Change the Weather History Date:

Wednesday, November 6, 2013

  Actual Average Record
Temperature  
Mean Temperature 64 °F -  
Max Temperature 68 °F 67 °F 79 °F (1948)
Min Temperature 59 °F 47 °F 31 °F (1976)
Degree Days  
Heating Degree Days 2    
Growing Degree Days 14 (Base 50)    
Moisture  
Dew Point 63 °F    
Average Humidity 95    
Maximum Humidity 100    
Minimum Humidity 81    
Precipitation  
Precipitation 0.21 in - - ()
Sea Level Pressure  
Sea Level Pressure 30.23 in    
Wind  
Wind Speed 9 mph (NNE)    
Max Wind Speed 13 mph    
Max Gust Speed 20 mph    
Visibility 4 miles    
Events Fog , Rain    
Averages and records for this station are not official NWS values.
T = Trace of Precipitation, MM = Missing Value Source: NWS Daily Summary

Daily Weather History Graph

Daily Weather History Graph

Search for Another Location

Airport:

Trip Planner

Search our weather history database for the weather conditions in past years. The results will help you decide how hot, cold, wet, or windy it might be!

Date:

Astronomy

Nov. 06, 2013 Rise Set
Actual Time 6:32 AM EST 5:07 PM EST
Civil Twilight 6:05 AM EST 5:34 PM EST
Nautical Twilight 5:35 AM EST 6:04 PM EST
Astronomical Twilight 5:06 AM EST 6:33 PM EST
Moon 9:41 AM EST (11/6) 8:13 PM EST (11/6)
Length of Visible Light 11h 28m
Length of Day
10h 35m
Waxing Crescent, 13% of the Moon is Illuminated
Nov 6
Waxing Crescent
Nov 10
First Quarter
Nov 17
Full
Nov 25
Last Quarter
Dec 2
New

Hourly Weather History & Observations

Time (EST) Temp. Dew Point Humidity Pressure Visibility Wind Dir Wind Speed Gust Speed Precip Events Conditions
12:58 AM 59.0 °F 55.9 °F 90% 30.36 in 10.0 mi NE 10.4 mph - N/A   Clear
1:58 AM 59.0 °F 55.9 °F 90% 30.35 in 10.0 mi NE 10.4 mph - N/A   Partly Cloudy
2:58 AM 59.0 °F 57.0 °F 93% 30.33 in 10.0 mi NE 9.2 mph - N/A   Clear
3:58 AM 60.1 °F 57.9 °F 93% 30.32 in 10.0 mi NE 9.2 mph - N/A   Scattered Clouds
4:58 AM 61.0 °F 57.9 °F 90% 30.31 in 10.0 mi NE 10.4 mph - N/A   Partly Cloudy
5:58 AM 61.0 °F 57.9 °F 90% 30.31 in 10.0 mi NE 11.5 mph - N/A   Clear
6:58 AM 62.1 °F 59.0 °F 90% 30.32 in 10.0 mi NE 9.2 mph - N/A   Overcast
7:58 AM 62.1 °F 59.0 °F 90% 30.32 in 8.0 mi NNE 9.2 mph 19.6 mph N/A   Mostly Cloudy
8:58 AM 64.9 °F 61.0 °F 87% 30.32 in 10.0 mi NE 11.5 mph - N/A   Overcast
9:54 AM 64.4 °F 60.8 °F 88% 30.32 in 1.8 mi NNE 9.2 mph - 0.00 in Rain Light Rain
9:58 AM 64.0 °F 61.0 °F 90% 30.32 in 1.5 mi NNE 9.2 mph - 0.00 in Rain Light Rain
10:17 AM 62.6 °F 60.8 °F 94% 30.32 in 2.0 mi NNE 9.2 mph - 0.01 in Rain Light Rain
10:22 AM 64.4 °F 62.6 °F 94% 30.32 in 3.0 mi NNE 10.4 mph 16.1 mph 0.01 in Rain Light Rain
10:34 AM 62.6 °F 62.6 °F 100% 30.32 in 3.0 mi NNE 8.1 mph - 0.01 in Rain Light Rain
10:58 AM 64.9 °F 62.1 °F 90% 30.31 in 4.0 mi NE 11.5 mph - 0.01 in Rain Light Rain
11:58 AM 66.0 °F 62.1 °F 87% 30.28 in 9.0 mi NNE 12.7 mph - 0.00 in   Overcast
12:58 PM 68.0 °F 62.1 °F 81% 30.25 in 10.0 mi NNE 10.4 mph - N/A   Overcast
1:11 PM 68.0 °F 62.6 °F 83% 30.24 in 3.0 mi NNE 8.1 mph - 0.00 in Rain Light Rain
1:18 PM 68.0 °F 64.4 °F 88% 30.24 in 1.8 mi NNE 5.8 mph - 0.01 in Rain Light Rain
1:32 PM 66.2 °F 64.4 °F 94% 30.24 in 2.5 mi NNE 5.8 mph - 0.01 in Rain Light Rain
1:37 PM 66.2 °F 64.4 °F 94% 30.24 in 1.8 mi NNE 6.9 mph - 0.02 in Rain Light Rain
1:44 PM 66.2 °F 64.4 °F 94% 30.24 in 1.2 mi NNE 6.9 mph - 0.03 in Rain Rain
1:48 PM 66.2 °F 64.4 °F 94% 30.24 in 1.2 mi NNE 8.1 mph - 0.03 in Rain Rain
1:56 PM 66.2 °F 64.4 °F 94% 30.23 in 1.2 mi NNE 8.1 mph - 0.04 in Rain Rain
1:58 PM 66.9 °F 64.9 °F 93% 30.24 in 1.2 mi NNE 8.1 mph - 0.05 in Rain Rain
2:10 PM 66.2 °F 64.4 °F 94% 30.23 in 2.0 mi NNE 10.4 mph - 0.00 in Rain Light Rain
2:21 PM 66.2 °F 64.4 °F 94% 30.22 in 3.0 mi NNE 9.2 mph - 0.01 in Rain Light Rain
2:30 PM 66.2 °F 64.4 °F 94% 30.22 in 3.0 mi NNE 11.5 mph - 0.01 in Rain Light Rain
2:40 PM 66.2 °F 64.4 °F 94% 30.22 in 3.0 mi NNE 11.5 mph - 0.01 in Rain Light Rain
2:49 PM 66.2 °F 64.4 °F 94% 30.22 in 3.0 mi NNE 6.9 mph - 0.01 in Rain Light Rain
2:58 PM 66.0 °F 64.9 °F 96% 30.22 in 3.0 mi NNE 8.1 mph - 0.01 in Rain Light Rain
3:05 PM 64.4 °F 64.4 °F 100% 30.22 in 2.0 mi NNE 8.1 mph - 0.01 in Rain Light Rain
3:32 PM 64.4 °F 64.4 °F 100% 30.22 in 1.0 mi NNE 5.8 mph - 0.04 in Rain Rain
3:47 PM 64.4 °F 64.4 °F 100% 30.21 in 2.0 mi NNE 8.1 mph - 0.06 in Rain Light Rain
3:55 PM 64.4 °F 64.4 °F 100% 30.21 in 4.0 mi NNE 8.1 mph - 0.06 in Rain Light Rain
3:58 PM 64.9 °F 64.0 °F 97% 30.22 in 4.0 mi NNE 9.2 mph - 0.06 in Rain Light Rain
4:12 PM 64.4 °F 64.4 °F 100% 30.21 in 1.8 mi NNE 8.1 mph - 0.01 in Rain Rain
4:29 PM 64.4 °F 64.4 °F 100% 30.20 in 2.5 mi NNE 9.2 mph - 0.02 in Rain Light Rain
4:42 PM 64.4 °F 64.4 °F 100% 30.21 in 3.0 mi NNE 8.1 mph - 0.02 in Rain Light Rain
4:56 PM 64.4 °F 64.4 °F 100% 30.20 in 2.5 mi NE 6.9 mph - 0.03 in Rain Light Rain
4:58 PM 64.0 °F 64.0 °F 100% 30.21 in 2.0 mi NE 6.9 mph - 0.03 in Rain Light Rain
5:06 PM 64.4 °F 62.6 °F 94% 30.20 in 1.8 mi NNE 8.1 mph - 0.01 in Rain Rain
5:08 PM 64.4 °F 62.6 °F 94% 30.20 in 2.0 mi NE 9.2 mph - 0.01 in Rain Rain
5:21 PM 64.4 °F 62.6 °F 94% 30.20 in 3.0 mi NNE 8.1 mph - 0.02 in Rain Light Rain
5:30 PM 64.4 °F 62.6 °F 94% 30.20 in 3.0 mi NE 8.1 mph - 0.02 in Rain Light Rain
5:58 PM 64.0 °F 64.0 °F 100% 30.20 in 5.0 mi NE 8.1 mph - 0.03 in Rain Light Rain
6:54 PM 64.4 °F 64.4 °F 100% 30.20 in 10.0 mi NE 5.8 mph - 0.01 in   Overcast
6:58 PM 64.0 °F 64.0 °F 100% 30.20 in 10.0 mi NE 6.9 mph - 0.01 in   Overcast
7:58 PM 64.0 °F 64.0 °F 100% 30.18 in 10.0 mi NNE 4.6 mph - N/A   Overcast
8:58 PM 64.0 °F 63.0 °F 96% 30.17 in 6.0 mi NNE 8.1 mph - 0.01 in Rain Light Rain
9:15 PM 64.4 °F 62.6 °F 94% 30.16 in 9.0 mi NNE 5.8 mph - 0.00 in   Overcast
9:58 PM 64.0 °F 63.0 °F 96% 30.15 in 2.5 mi NNE 10.4 mph - 0.00 in   Overcast
10:31 PM 62.6 °F 62.6 °F 100% 30.14 in 3.0 mi NE 5.8 mph - N/A   Overcast
10:38 PM 64.4 °F 62.6 °F 94% 30.14 in 2.5 mi NE 5.8 mph - N/A   Overcast
10:48 PM 62.6 °F 62.6 °F 100% 30.13 in 4.0 mi NE 4.6 mph - N/A   Overcast
10:58 PM 63.0 °F 63.0 °F 100% 30.13 in 2.5 mi NE 3.5 mph - N/A   Overcast
11:08 PM 62.6 °F 62.6 °F 100% 30.13 in 1.0 mi NNE 4.6 mph - N/A   Overcast
11:16 PM 62.6 °F 62.6 °F 100% 30.13 in 0.5 mi Calm Calm - N/A Fog Fog
11:43 PM 62.6 °F 62.6 °F 100% 30.12 in 1.2 mi NNE 3.5 mph - N/A   Overcast
11:51 PM 62.6 °F 62.6 °F 100% 30.12 in 3.0 mi NNE 3.5 mph - N/A   Overcast
11:58 PM 63.0 °F 63.0 °F 100% 30.12 in 5.0 mi Calm Calm - N/A   Overcast